createdAt,value
2023-02-19T00:02:56.912Z,9.84
2023-02-19T00:06:58.440Z,9.85
2023-02-19T00:11:05.480Z,9.83
2023-02-19T00:15:07.330Z,9.81
2023-02-19T00:19:13.343Z,9.78
2023-02-19T00:23:14.810Z,9.80
2023-02-19T00:27:16.407Z,9.84
2023-02-19T00:31:27.031Z,9.88
2023-02-19T00:35:29.149Z,9.92
2023-02-19T00:39:30.661Z,9.95
2023-02-19T00:43:32.196Z,9.95
2023-02-19T00:47:33.782Z,9.94
2023-02-19T00:51:38.187Z,9.90
2023-02-19T00:55:39.692Z,9.87
2023-02-19T00:59:41.253Z,9.83
2023-02-19T01:03:43.351Z,9.83
2023-02-19T01:07:44.872Z,9.82
2023-02-19T01:11:46.825Z,9.84
2023-02-19T01:15:48.511Z,9.82
2023-02-19T01:19:50.111Z,9.82
2023-02-19T01:23:52.544Z,9.80
2023-02-19T01:27:54.118Z,9.81
2023-02-19T01:31:55.799Z,9.80
2023-02-19T01:35:57.749Z,9.83
2023-02-19T01:39:59.191Z,9.81
2023-02-19T01:44:08.318Z,9.82
2023-02-19T01:48:19.366Z,9.75
2023-02-19T01:52:28.336Z,9.61
2023-02-19T01:56:32.237Z,9.52
2023-02-19T02:00:34.125Z,9.47
2023-02-19T02:04:36.276Z,9.39
2023-02-19T02:08:57.094Z,9.33
2023-02-19T02:12:58.942Z,9.24
2023-02-19T02:17:24.306Z,9.12
2023-02-19T02:21:51.409Z,9.02
2023-02-19T02:26:21.832Z,8.89
2023-02-19T02:30:35.181Z,8.71
2023-02-19T02:34:48.464Z,8.65
2023-02-19T02:38:54.026Z,8.63
2023-02-19T02:42:58.561Z,8.61
2023-02-19T02:47:01.415Z,8.58
2023-02-19T02:51:09.902Z,8.54
2023-02-19T02:55:17.376Z,8.52
2023-02-19T02:59:25.136Z,8.51
2023-02-19T03:03:29.298Z,8.47
2023-02-19T03:07:37.048Z,8.39
2023-02-19T03:12:00.445Z,8.36
2023-02-19T03:16:29.144Z,8.38
2023-02-19T03:20:34.256Z,8.39
2023-02-19T03:25:00.247Z,8.36
2023-02-19T03:29:22.089Z,8.36
2023-02-19T03:33:28.935Z,8.38
2023-02-19T03:37:55.506Z,8.36
2023-02-19T03:42:20.502Z,8.37
2023-02-19T03:46:36.482Z,8.39
2023-02-19T03:50:54.800Z,8.40
2023-02-19T03:55:08.705Z,8.40
2023-02-19T03:59:24.497Z,8.38
2023-02-19T04:03:35.793Z,8.37
2023-02-19T04:07:42.292Z,8.36
2023-02-19T04:11:44.707Z,8.34
2023-02-19T04:15:48.744Z,8.34
2023-02-19T04:19:52.940Z,8.35
2023-02-19T04:23:57.202Z,8.33
2023-02-19T04:27:59.121Z,8.29
2023-02-19T04:32:01.348Z,8.32
2023-02-19T04:36:03.265Z,8.27
2023-02-19T04:40:05.554Z,8.27
2023-02-19T04:44:07.151Z,8.19
2023-02-19T04:48:08.852Z,8.13
2023-02-19T04:52:11.108Z,8.14
2023-02-19T04:56:15.135Z,8.04
2023-02-19T05:00:16.702Z,8.04
2023-02-19T05:04:18.747Z,8.09
2023-02-19T05:08:20.334Z,8.13
2023-02-19T05:12:22.012Z,8.15
2023-02-19T05:16:23.757Z,8.08
2023-02-19T05:20:25.400Z,8.10
2023-02-19T05:24:27.562Z,8.12
2023-02-19T05:28:29.130Z,8.08
2023-02-19T05:32:30.639Z,8.10
2023-02-19T05:36:32.423Z,8.10
2023-02-19T05:40:34.264Z,8.12
2023-02-19T05:44:36.011Z,8.11
2023-02-19T05:48:37.565Z,8.07
2023-02-19T05:52:39.134Z,8.04
2023-02-19T05:56:42.407Z,7.96
2023-02-19T06:00:44.143Z,7.96
2023-02-19T06:04:45.617Z,7.93
2023-02-19T06:08:50.065Z,7.93
2023-02-19T06:12:54.834Z,7.93
2023-02-19T06:16:56.307Z,7.89
2023-02-19T06:21:02.626Z,7.91
2023-02-19T06:25:04.800Z,7.89
2023-02-19T06:29:06.467Z,7.91
2023-02-19T06:33:08.906Z,7.95
2023-02-19T06:37:10.465Z,7.99
2023-02-19T06:41:13.234Z,8.04
2023-02-19T06:45:15.485Z,8.09
2023-02-19T06:49:17.223Z,8.15
2023-02-19T06:53:18.778Z,8.15
2023-02-19T06:57:20.492Z,8.20
2023-02-19T07:01:23.061Z,8.22
2023-02-19T07:05:24.794Z,8.23
2023-02-19T07:09:28.383Z,8.29
2023-02-19T07:13:30.284Z,8.32
2023-02-19T07:17:31.824Z,8.30
2023-02-19T07:21:37.511Z,8.36
2023-02-19T07:25:39.380Z,8.41
2023-02-19T07:29:40.931Z,8.43
2023-02-19T07:33:44.301Z,8.48
2023-02-19T07:37:46.035Z,8.44
2023-02-19T07:41:47.569Z,8.23
2023-02-19T07:46:18.996Z,8.04
2023-02-19T07:50:20.586Z,7.93
2023-02-19T07:54:22.111Z,7.76
2023-02-19T07:58:23.610Z,7.68
2023-02-19T08:02:43.826Z,7.68
2023-02-19T08:06:45.536Z,7.68
2023-02-19T08:11:05.527Z,7.68
2023-02-19T08:15:07.388Z,7.71
2023-02-19T08:19:09.006Z,7.82
2023-02-19T08:23:12.276Z,7.81
2023-02-19T08:27:13.747Z,7.78
2023-02-19T08:31:15.591Z,7.69
2023-02-19T08:35:17.506Z,7.47
2023-02-19T08:39:20.970Z,7.24
2023-02-19T08:43:22.664Z,7.17
2023-02-19T08:47:24.330Z,6.93
2023-02-19T08:51:26.225Z,6.87
2023-02-19T08:55:28.495Z,6.84
2023-02-19T08:59:30.494Z,6.81
2023-02-19T09:03:32.006Z,6.60
2023-02-19T09:07:33.450Z,6.40
2023-02-19T09:11:35.060Z,6.20
2023-02-19T09:15:38.959Z,6.24
2023-02-19T09:19:42.000Z,6.33
2023-02-19T09:23:43.812Z,6.45
2023-02-19T09:27:45.582Z,6.48
2023-02-19T09:31:47.446Z,6.32
2023-02-19T09:35:49.157Z,6.18
2023-02-19T09:39:50.884Z,6.08
2023-02-19T09:43:52.492Z,6.11
2023-02-19T09:47:57.749Z,6.14
2023-02-19T09:52:14.164Z,6.17
2023-02-19T09:56:16.285Z,6.45
2023-02-19T10:00:26.534Z,6.77
2023-02-19T10:04:28.177Z,6.98
2023-02-19T10:08:33.004Z,7.28
2023-02-19T10:12:35.047Z,7.69
2023-02-19T10:16:41.505Z,7.95
2023-02-19T10:20:43.274Z,8.24
2023-02-19T10:24:48.630Z,8.24
2023-02-19T10:28:50.468Z,8.49
2023-02-19T10:33:19.365Z,8.96
2023-02-19T10:37:21.128Z,10.47
2023-02-19T10:41:25.138Z,10.77
2023-02-19T10:45:38.714Z,11.39
2023-02-19T10:49:43.385Z,11.20
2023-02-19T10:53:47.650Z,10.72
2023-02-19T10:57:50.360Z,10.44
2023-02-19T11:02:00.702Z,10.31
2023-02-19T11:06:05.041Z,10.96
2023-02-19T11:10:07.197Z,10.64
2023-02-19T11:14:16.925Z,10.27
2023-02-19T11:18:25.873Z,11.49
2023-02-19T11:22:37.777Z,13.21
2023-02-19T11:26:39.395Z,12.35
2023-02-19T11:30:45.566Z,10.98
2023-02-19T11:34:48.051Z,10.18
2023-02-19T11:38:49.617Z,9.43
2023-02-19T11:43:02.454Z,9.04
2023-02-19T11:47:33.442Z,9.48
2023-02-19T11:52:10.523Z,9.91
2023-02-19T11:56:18.387Z,9.85
2023-02-19T12:00:44.762Z,9.51
2023-02-19T12:05:17.364Z,9.52
2023-02-19T12:09:46.607Z,9.59
2023-02-19T12:14:17.184Z,10.95
2023-02-19T12:18:41.348Z,11.00
2023-02-19T12:23:06.827Z,11.91
2023-02-19T12:27:40.754Z,13.00
2023-02-19T12:31:53.938Z,14.89
2023-02-19T12:36:17.338Z,15.85
2023-02-19T12:40:34.632Z,17.61
2023-02-19T12:44:48.549Z,20.92
2023-02-19T12:49:02.394Z,21.35
2023-02-19T12:53:48.245Z,24.59
2023-02-19T12:57:51.043Z,28.35
2023-02-19T13:02:14.794Z,27.09
2023-02-19T13:06:28.053Z,20.44
2023-02-19T13:10:42.131Z,18.67
2023-02-19T13:14:48.953Z,20.31
2023-02-19T13:19:00.376Z,20.29
2023-02-19T13:23:27.222Z,25.22
2023-02-19T13:27:59.233Z,30.27
2023-02-19T13:32:06.859Z,32.70
2023-02-19T13:36:19.866Z,33.06
2023-02-19T13:40:42.169Z,33.73
2023-02-19T13:44:48.356Z,32.36
2023-02-19T13:49:28.181Z,31.74
2023-02-19T13:53:44.992Z,31.31
2023-02-19T13:57:46.866Z,30.09
2023-02-19T14:01:54.128Z,27.66
2023-02-19T14:06:02.808Z,30.51
2023-02-19T14:10:11.039Z,30.43
2023-02-19T14:14:33.735Z,30.47
2023-02-19T14:18:46.171Z,28.26
